createdAt,value
2019-04-27T04:01:04.766Z,99.99
2019-04-27T04:02:04.949Z,99.99
2019-04-27T04:03:05.113Z,99.99
2019-04-27T04:04:05.283Z,99.99
2019-04-27T04:05:05.452Z,99.99
2019-04-27T04:06:05.630Z,99.99
2019-04-27T04:07:05.796Z,99.99
2019-04-27T04:08:05.961Z,99.99
2019-04-27T04:09:06.146Z,99.99
2019-04-27T04:10:06.307Z,99.99
2019-04-27T04:11:06.481Z,99.99
2019-04-27T04:12:06.654Z,99.99
2019-04-27T04:13:06.839Z,99.99
2019-04-27T04:14:06.993Z,99.99
2019-04-27T04:15:09.789Z,99.99
2019-04-27T04:16:07.926Z,99.99
2019-04-27T04:17:09.873Z,99.99
2019-04-27T04:18:09.664Z,99.99
2019-04-27T04:19:09.750Z,99.99
2019-04-27T04:20:10.090Z,99.99
2019-04-27T04:21:09.579Z,99.99
2019-04-27T04:22:10.295Z,99.99
2019-04-27T04:23:10.679Z,99.99
2019-04-27T04:24:09.534Z,99.99
2019-04-27T04:25:10.733Z,99.99
2019-04-27T04:26:09.882Z,99.99
2019-04-27T04:27:09.931Z,99.99
2019-04-27T04:28:09.553Z,99.99
2019-04-27T04:29:10.444Z,99.99
2019-04-27T04:30:12.192Z,99.99
2019-04-27T04:31:13.435Z,99.99
2019-04-27T04:32:10.760Z,99.99
2019-04-27T04:33:10.566Z,99.99
2019-04-27T04:34:12.057Z,99.99
2019-04-27T04:35:10.572Z,99.99
2019-04-27T04:36:10.748Z,99.99
2019-04-27T04:37:10.910Z,99.99
2019-04-27T04:38:11.092Z,99.99
2019-04-27T04:39:12.451Z,99.99
2019-04-27T04:40:11.419Z,99.99
2019-04-27T04:41:11.592Z,99.99
2019-04-27T04:42:11.754Z,99.99
2019-04-27T04:43:12.088Z,99.99
2019-04-27T04:44:12.459Z,99.99
2019-04-27T04:45:12.316Z,99.99
2019-04-27T04:46:13.318Z,99.99
2019-04-27T04:47:12.663Z,99.99
2019-04-27T04:48:12.832Z,99.99
2019-04-27T04:49:13.009Z,99.99
2019-04-27T04:50:15.214Z,99.99
2019-04-27T04:51:13.350Z,99.99
2019-04-27T04:52:13.521Z,99.99
2019-04-27T04:53:13.690Z,99.99
2019-04-27T04:54:13.863Z,99.99
2019-04-27T04:55:14.036Z,99.99
2019-04-27T04:56:14.203Z,99.99
2019-04-27T04:57:14.376Z,99.99
2019-04-27T04:58:14.548Z,99.99
2019-04-27T04:59:14.723Z,99.99
2019-04-27T05:00:14.888Z,99.99
2019-04-27T05:01:15.057Z,99.99
2019-04-27T05:02:15.227Z,99.99
2019-04-27T05:03:15.398Z,99.99
2019-04-27T05:04:15.568Z,99.99
2019-04-27T05:05:15.734Z,99.99
2019-04-27T05:06:15.902Z,99.99
2019-04-27T05:07:16.070Z,99.99
2019-04-27T05:08:16.240Z,99.99
2019-04-27T05:09:16.416Z,99.99
2019-04-27T05:10:16.584Z,99.99
2019-04-27T05:11:16.750Z,99.99
2019-04-27T05:12:16.921Z,99.99
2019-04-27T05:13:17.093Z,99.99
2019-04-27T05:14:17.264Z,99.99
2019-04-27T05:15:19.222Z,99.99
2019-04-27T05:16:18.936Z,99.99
2019-04-27T05:17:19.450Z,99.99
2019-04-27T05:18:19.176Z,99.99
2019-04-27T05:19:18.894Z,99.99
2019-04-27T05:20:24.396Z,99.99
2019-04-27T05:21:18.575Z,99.99
2019-04-27T05:22:19.541Z,99.99
2019-04-27T05:23:18.866Z,99.99
2019-04-27T05:24:19.310Z,99.99
2019-04-27T05:25:19.153Z,99.99
2019-04-27T05:26:20.764Z,99.99
2019-04-27T05:27:19.495Z,99.99
2019-04-27T05:28:19.664Z,99.99
2019-04-27T05:29:19.835Z,99.99
2019-04-27T05:30:20.017Z,99.99
2019-04-27T05:31:20.189Z,99.99
2019-04-27T05:32:20.697Z,99.99
2019-04-27T05:33:20.529Z,99.99
2019-04-27T05:34:20.703Z,99.99
2019-04-27T05:35:20.872Z,99.99
2019-04-27T05:36:21.037Z,99.99
2019-04-27T05:37:27.852Z,99.99
2019-04-27T05:38:21.380Z,99.99
2019-04-27T05:39:24.880Z,99.99
2019-04-27T05:40:21.725Z,99.99
2019-04-27T05:41:21.881Z,99.99
2019-04-27T05:42:22.050Z,99.99
2019-04-27T05:43:25.490Z,99.99
2019-04-27T05:44:22.394Z,99.99
2019-04-27T05:45:22.946Z,99.99
2019-04-27T05:46:22.736Z,99.99
2019-04-27T05:47:22.907Z,99.99
2019-04-27T05:48:27.590Z,99.99
2019-04-27T05:49:23.234Z,99.99
2019-04-27T05:50:35.310Z,99.99
2019-04-27T05:51:23.572Z,99.99
2019-04-27T05:52:23.760Z,99.99
2019-04-27T05:53:23.913Z,99.99
2019-04-27T05:54:24.075Z,99.99
2019-04-27T05:55:24.226Z,99.99
2019-04-27T05:56:24.465Z,99.99
2019-04-27T05:57:24.539Z,99.99
2019-04-27T05:58:24.724Z,99.99
2019-04-27T05:59:24.912Z,99.99
2019-04-27T06:00:25.039Z,99.99
2019-04-27T06:01:25.215Z,99.99
2019-04-27T06:02:25.380Z,99.99
2019-04-27T06:03:25.539Z,99.99
2019-04-27T06:04:25.704Z,99.99
2019-04-27T06:05:25.864Z,99.99
2019-04-27T06:06:26.042Z,99.99
2019-04-27T06:07:26.198Z,99.99
2019-04-27T06:08:26.344Z,99.99
2019-04-27T06:09:26.517Z,99.99
2019-04-27T06:10:26.682Z,99.99
2019-04-27T06:11:28.181Z,99.99
2019-04-27T06:12:27.015Z,99.99
2019-04-27T06:13:29.202Z,99.99
2019-04-27T06:14:29.065Z,99.99
2019-04-27T06:15:28.373Z,99.99
2019-04-27T06:16:29.392Z,99.99
2019-04-27T06:17:29.655Z,99.99
2019-04-27T06:18:29.418Z,99.99
2019-04-27T06:19:29.137Z,99.99
2019-04-27T06:20:28.643Z,99.99
2019-04-27T06:21:29.513Z,99.99
2019-04-27T06:22:29.273Z,99.99
2019-04-27T06:23:29.055Z,99.99
2019-04-27T06:24:29.763Z,99.99
2019-04-27T06:25:30.536Z,99.99
2019-04-27T06:26:30.075Z,99.99
2019-04-27T06:27:30.664Z,99.99
2019-04-27T06:28:31.462Z,99.99
2019-04-27T06:29:29.795Z,99.99
2019-04-27T06:30:29.993Z,99.99
2019-04-27T06:31:30.134Z,99.99
2019-04-27T06:32:30.282Z,99.99
2019-04-27T06:33:34.306Z,99.99
2019-04-27T06:34:31.009Z,99.99
2019-04-27T06:35:30.809Z,99.99
2019-04-27T06:36:30.987Z,99.99
2019-04-27T06:37:31.137Z,99.99
2019-04-27T06:38:31.297Z,99.99
2019-04-27T06:39:31.468Z,99.99
2019-04-27T06:40:31.643Z,99.99
2019-04-27T06:41:31.812Z,99.99
2019-04-27T06:42:31.988Z,99.99
2019-04-27T06:43:32.180Z,99.99
2019-04-27T06:44:32.339Z,99.99
2019-04-27T06:45:32.501Z,99.99
2019-04-27T06:46:32.678Z,99.99
2019-04-27T06:47:32.842Z,99.99
2019-04-27T06:48:33.018Z,99.99
2019-04-27T06:49:33.207Z,99.99
2019-04-27T06:50:33.364Z,99.99
2019-04-27T06:51:33.529Z,99.99
2019-04-27T06:52:33.688Z,99.99
2019-04-27T06:53:33.841Z,99.99
2019-04-27T06:54:34.021Z,99.99
2019-04-27T06:55:34.188Z,99.99
2019-04-27T06:56:34.342Z,99.99
2019-04-27T06:57:34.502Z,99.99
2019-04-27T06:58:34.674Z,99.99
2019-04-27T06:59:34.837Z,99.99
2019-04-27T07:00:35.013Z,99.99
2019-04-27T07:01:35.165Z,99.99
2019-04-27T07:02:35.308Z,99.99
2019-04-27T07:03:35.491Z,99.99
2019-04-27T07:04:35.655Z,99.99
2019-04-27T07:05:35.823Z,99.99
2019-04-27T07:06:35.979Z,99.99
2019-04-27T07:07:36.143Z,99.99
2019-04-27T07:10:09.383Z,99.99
2019-04-27T07:11:11.477Z,99.99
2019-04-27T07:12:09.754Z,99.99
2019-04-27T07:13:09.881Z,99.99
2019-04-27T07:14:11.731Z,99.99
2019-04-27T07:15:10.217Z,99.99
2019-04-27T07:16:10.395Z,99.99
2019-04-27T07:17:10.566Z,99.99
2019-04-27T07:18:10.737Z,99.99
2019-04-27T07:19:10.908Z,99.99
2019-04-27T07:20:11.082Z,99.99
2019-04-27T07:21:18.943Z,99.99
2019-04-27T07:22:11.532Z,99.99
2019-04-27T07:23:11.600Z,99.99
2019-04-27T07:24:11.772Z,99.99
2019-04-27T07:25:11.946Z,99.99
2019-04-27T07:26:12.115Z,99.99
2019-04-27T07:27:12.284Z,99.99
2019-04-27T07:28:12.451Z,99.99
2019-04-27T07:29:12.622Z,99.99
2019-04-27T07:30:12.802Z,99.99
2019-04-27T07:31:12.970Z,99.99
2019-04-27T07:32:13.140Z,99.99
2019-04-27T07:33:13.311Z,99.99
2019-04-27T07:34:13.493Z,99.99
2019-04-27T07:35:13.655Z,99.99
2019-04-27T07:36:13.827Z,99.99
2019-04-27T07:37:14.001Z,99.99
2019-04-27T07:38:14.168Z,99.99
2019-04-27T07:39:14.341Z,99.99
2019-04-27T07:40:14.517Z,99.99
2019-04-27T07:41:14.684Z,99.99
2019-04-27T07:42:14.859Z,99.99
2019-04-27T07:43:15.028Z,99.99
2019-04-27T07:44:15.200Z,99.81
2019-04-27T07:45:15.373Z,96.42
2019-04-27T07:46:15.540Z,91.05
2019-04-27T07:47:15.767Z,90.72
2019-04-27T07:48:15.875Z,91.86
2019-04-27T07:49:16.051Z,90.28
2019-04-27T07:50:16.220Z,90.76
2019-04-27T07:51:29.580Z,89.28
2019-04-27T07:52:16.571Z,89.37
2019-04-27T07:53:16.719Z,92.30
2019-04-27T07:54:16.895Z,94.50
2019-04-27T07:55:18.567Z,95.27
2019-04-27T07:56:19.037Z,97.38
2019-04-27T07:57:17.382Z,95.51
2019-04-27T07:58:17.540Z,89.90
2019-04-27T07:59:18.852Z,87.55
2019-04-27T08:00:19.082Z,85.35
2019-04-27T08:01:19.274Z,84.44
2019-04-27T08:02:19.021Z,81.70
2019-04-27T08:03:19.559Z,80.49
2019-04-27T08:04:18.819Z,81.68
2019-04-27T08:05:19.216Z,82.68
2019-04-27T08:06:19.028Z,82.07
2019-04-27T08:07:19.610Z,79.82
2019-04-27T08:08:19.225Z,79.24
2019-04-27T08:09:19.372Z,82.56
2019-04-27T08:10:19.538Z,81.75
2019-04-27T08:11:19.785Z,83.23
2019-04-27T08:12:20.781Z,80.20
2019-04-27T08:13:20.065Z,80.34
2019-04-27T08:14:20.201Z,76.44
2019-04-27T08:15:20.362Z,77.69
2019-04-27T08:16:20.732Z,77.56
2019-04-27T08:17:20.670Z,77.56
2019-04-27T08:18:20.885Z,76.15
2019-04-27T08:19:21.037Z,78.02
2019-04-27T08:20:21.366Z,78.11
2019-04-27T08:21:21.336Z,76.52
2019-04-27T08:22:21.497Z,77.86
2019-04-27T08:23:21.703Z,77.00
2019-04-27T08:24:21.830Z,76.67
2019-04-27T08:25:21.993Z,75.81
2019-04-27T08:26:22.207Z,77.21
2019-04-27T08:27:22.381Z,77.59
2019-04-27T08:28:22.544Z,77.88
2019-04-27T08:29:22.714Z,76.64
2019-04-27T08:30:22.910Z,75.46
2019-04-27T08:31:23.141Z,74.37
2019-04-27T08:32:23.265Z,77.11
2019-04-27T08:33:23.418Z,75.38
2019-04-27T08:34:23.561Z,73.66
2019-04-27T08:35:23.739Z,73.85
2019-04-27T08:36:23.879Z,75.45
2019-04-27T08:37:24.052Z,77.13
2019-04-27T08:38:24.226Z,79.97
2019-04-27T08:39:24.388Z,79.59
2019-04-27T08:40:24.563Z,83.00
2019-04-27T08:41:24.784Z,80.56
2019-04-27T08:42:24.900Z,81.43
2019-04-27T08:43:25.053Z,80.85
2019-04-27T08:44:25.231Z,81.13
2019-04-27T08:45:25.402Z,82.38
2019-04-27T08:46:25.588Z,84.34
2019-04-27T08:47:25.758Z,81.98
2019-04-27T08:48:34.674Z,79.59
2019-04-27T08:49:26.236Z,79.53
2019-04-27T08:50:26.331Z,81.10
2019-04-27T08:51:26.534Z,76.96
2019-04-27T08:52:26.638Z,73.02
2019-04-27T08:53:26.808Z,73.02
2019-04-27T08:54:26.961Z,71.52
2019-04-27T08:55:27.121Z,71.23
2019-04-27T08:56:27.294Z,71.08
2019-04-27T08:57:28.994Z,71.78
2019-04-27T08:58:28.601Z,72.30
2019-04-27T08:59:29.554Z,70.12
2019-04-27T09:00:29.157Z,68.68
2019-04-27T09:01:29.911Z,67.90
2019-04-27T09:02:39.782Z,64.86
2019-04-27T09:03:29.431Z,66.78
2019-04-27T09:04:28.882Z,67.16
2019-04-27T09:05:29.126Z,70.88
2019-04-27T09:06:31.165Z,69.56
2019-04-27T09:07:31.626Z,71.39
2019-04-27T09:08:29.344Z,72.89
2019-04-27T09:09:29.603Z,74.71
2019-04-27T09:10:29.686Z,74.48
2019-04-27T09:11:29.855Z,78.09
2019-04-27T09:12:30.010Z,74.22
2019-04-27T09:13:30.177Z,75.75
2019-04-27T09:14:30.342Z,78.05
2019-04-27T09:15:30.518Z,78.49
2019-04-27T09:16:30.688Z,78.59
2019-04-27T09:17:30.989Z,81.43
2019-04-27T09:18:32.598Z,84.01
2019-04-27T09:19:31.193Z,80.18
2019-04-27T09:20:31.365Z,77.92
2019-04-27T09:21:31.533Z,78.25
2019-04-27T09:22:31.717Z,76.56
2019-04-27T09:23:31.888Z,75.02
2019-04-27T09:24:32.075Z,71.70
2019-04-27T09:25:32.212Z,71.12
2019-04-27T09:26:32.397Z,72.60
2019-04-27T09:27:32.550Z,69.81
2019-04-27T09:28:32.727Z,68.57
2019-04-27T09:29:32.888Z,70.93
2019-04-27T09:30:33.059Z,73.04
2019-04-27T09:31:33.225Z,70.07
2019-04-27T09:32:33.398Z,71.86
2019-04-27T09:33:33.565Z,73.97
2019-04-27T09:34:33.736Z,75.02
2019-04-27T09:35:35.573Z,75.98
2019-04-27T09:36:34.070Z,75.65
2019-04-27T09:37:34.248Z,74.37
2019-04-27T09:38:35.764Z,74.08
2019-04-27T09:39:35.878Z,77.02
2019-04-27T09:40:36.070Z,77.69
2019-04-27T09:41:36.618Z,79.80
2019-04-27T09:42:38.151Z,80.76
2019-04-27T09:43:36.771Z,80.94
2019-04-27T09:44:37.086Z,78.27
2019-04-27T09:45:37.204Z,79.70
2019-04-27T09:46:36.409Z,79.13
2019-04-27T09:47:36.864Z,79.89
2019-04-27T09:48:36.292Z,79.80
2019-04-27T09:49:38.078Z,78.55
2019-04-27T09:50:36.435Z,78.07
2019-04-27T09:51:36.605Z,77.88
2019-04-27T09:52:36.773Z,78.74
2019-04-27T09:53:36.932Z,79.60
2019-04-27T09:54:37.103Z,75.35
2019-04-27T09:55:37.276Z,75.45
2019-04-27T09:56:37.442Z,76.31
2019-04-27T09:57:37.607Z,76.89
2019-04-27T09:58:37.778Z,80.00
2019-04-27T09:59:39.708Z,80.87
2019-04-27T10:00:38.123Z,81.54
2019-04-27T10:01:38.297Z,78.47
2019-04-27T10:02:38.468Z,77.57
2019-04-27T10:03:38.637Z,77.57
2019-04-27T10:04:38.792Z,78.72
2019-04-27T10:05:38.968Z,78.43
2019-04-27T10:06:39.153Z,78.24
2019-04-27T10:07:39.326Z,80.92
2019-04-27T10:08:39.490Z,81.40
2019-04-27T10:09:39.656Z,79.96
2019-04-27T10:10:39.822Z,81.40
2019-04-27T10:11:39.996Z,81.78
2019-04-27T10:12:40.166Z,79.10
2019-04-27T10:13:40.330Z,78.91
2019-04-27T10:14:40.512Z,79.77
2019-04-27T10:15:40.692Z,79.29
2019-04-27T10:16:40.860Z,79.96
2019-04-27T10:17:41.034Z,79.77
2019-04-27T10:18:41.187Z,81.30
2019-04-27T10:19:41.362Z,80.44
2019-04-27T10:20:41.535Z,78.05
2019-04-27T10:21:41.706Z,78.72
2019-04-27T10:22:43.724Z,79.29
2019-04-27T10:23:42.043Z,80.44
2019-04-27T10:24:42.221Z,78.43
2019-04-27T10:25:42.415Z,79.20
2019-04-27T10:26:43.857Z,79.20
2019-04-27T10:27:42.731Z,79.00
2019-04-27T10:28:42.904Z,80.16
2019-04-27T10:29:43.078Z,80.35
2019-04-27T10:30:43.249Z,80.50
2019-04-27T10:31:43.423Z,79.93
2019-04-27T10:32:43.592Z,80.54
2019-04-27T10:33:43.773Z,79.93
2019-04-27T10:34:43.937Z,80.69
2019-04-27T10:35:44.110Z,81.07
2019-04-27T10:36:46.045Z,80.50
2019-04-27T10:37:44.444Z,81.74
2019-04-27T10:38:45.905Z,82.41
2019-04-27T10:39:45.963Z,82.31
2019-04-27T10:40:44.941Z,82.79
2019-04-27T10:41:46.341Z,83.75
2019-04-27T10:42:45.915Z,85.18
2019-04-27T10:43:45.447Z,84.03
2019-04-27T10:44:46.158Z,83.46
2019-04-27T10:45:46.249Z,83.37
2019-04-27T10:46:45.962Z,82.51
2019-04-27T10:47:49.325Z,82.98
2019-04-27T10:48:46.297Z,83.99
2019-04-27T10:49:48.406Z,84.89
2019-04-27T10:50:46.765Z,84.32
2019-04-27T10:51:46.812Z,83.46
2019-04-27T10:52:53.243Z,82.89
2019-04-27T10:53:47.150Z,83.84
2019-04-27T10:54:47.313Z,83.75
2019-04-27T10:55:47.485Z,83.75
2019-04-27T10:56:47.659Z,85.14
2019-04-27T10:57:47.835Z,85.42
2019-04-27T10:58:47.997Z,85.62
2019-04-27T10:59:48.175Z,86.29
2019-04-27T11:00:48.352Z,85.71
2019-04-27T11:01:48.521Z,86.00
2019-04-27T11:02:48.693Z,86.57
2019-04-27T11:03:48.867Z,86.38
2019-04-27T11:04:49.042Z,85.71
2019-04-27T11:05:49.211Z,86.29
2019-04-27T11:06:49.393Z,86.67
2019-04-27T11:07:49.550Z,85.71
2019-04-27T11:08:49.728Z,85.86
2019-04-27T11:09:50.564Z,85.52
2019-04-27T11:10:50.071Z,85.62
2019-04-27T11:11:50.241Z,86.38
2019-04-27T11:12:50.376Z,86.96
2019-04-27T11:13:50.551Z,86.29
2019-04-27T11:14:50.734Z,86.86
2019-04-27T11:15:50.885Z,87.53
2019-04-27T11:16:51.090Z,86.96
2019-04-27T11:17:51.218Z,87.76
2019-04-27T11:18:51.358Z,89.10
2019-04-27T11:19:51.537Z,90.34
2019-04-27T11:20:51.761Z,89.67
2019-04-27T11:21:51.868Z,87.00
2019-04-27T11:22:52.057Z,89.29
2019-04-27T11:23:52.177Z,91.02
2019-04-27T11:24:52.339Z,92.16
2019-04-27T11:25:52.522Z,89.92
2019-04-27T11:26:52.686Z,90.16
2019-04-27T11:27:52.858Z,90.25
2019-04-27T11:28:53.029Z,89.96
2019-04-27T11:29:53.185Z,90.34
2019-04-27T11:30:53.368Z,93.50
2019-04-27T11:31:53.511Z,91.02
2019-04-27T11:32:56.611Z,92.64
2019-04-27T11:33:53.842Z,93.79
2019-04-27T11:34:55.729Z,93.50
2019-04-27T11:35:54.189Z,95.51
2019-04-27T11:36:55.459Z,94.07
2019-04-27T11:37:55.700Z,99.14
2019-04-27T11:38:56.474Z,94.26
2019-04-27T11:39:55.952Z,93.31
2019-04-27T11:40:56.653Z,95.61
2019-04-27T11:41:55.183Z,93.60
2019-04-27T11:42:56.979Z,94.55
2019-04-27T11:43:56.580Z,95.70
2019-04-27T11:44:58.238Z,94.26
2019-04-27T11:45:55.986Z,93.12
2019-04-27T11:46:56.016Z,93.60
2019-04-27T11:47:57.108Z,92.30
2019-04-27T11:48:58.306Z,93.07
2019-04-27T11:49:57.972Z,94.21
2019-04-27T11:50:56.655Z,95.51
2019-04-27T11:51:56.845Z,90.72
2019-04-27T11:52:56.999Z,92.54
2019-04-27T11:53:57.157Z,93.98
2019-04-27T11:54:57.327Z,94.93
2019-04-27T11:55:57.495Z,94.07
2019-04-27T11:56:57.647Z,94.17
2019-04-27T11:57:57.840Z,95.03
2019-04-27T11:58:57.973Z,94.26
2019-04-27T11:59:58.199Z,97.23
2019-04-27T12:00:58.308Z,95.61
2019-04-27T12:01:58.503Z,94.55
2019-04-27T12:02:58.671Z,94.36
2019-04-27T12:03:58.847Z,95.98
2019-04-27T12:04:59.022Z,95.22
2019-04-27T12:06:00.274Z,96.66
2019-04-27T12:06:59.371Z,97.33
2019-04-27T12:07:59.544Z,97.52
2019-04-27T12:08:59.716Z,98.86
2019-04-27T12:09:59.890Z,99.99
2019-04-27T12:11:00.067Z,97.23
2019-04-27T12:12:12.685Z,94.74
2019-04-27T12:13:00.407Z,95.22
2019-04-27T12:14:00.580Z,94.93
2019-04-27T12:15:00.769Z,94.17
2019-04-27T12:16:00.931Z,95.41
2019-04-27T12:17:01.104Z,95.03
2019-04-27T12:18:01.276Z,94.12
2019-04-27T12:19:01.451Z,97.08
2019-04-27T12:20:01.624Z,99.00
2019-04-27T12:21:01.799Z,98.24
2019-04-27T12:22:01.970Z,99.99
2019-04-27T12:23:02.145Z,99.99
2019-04-27T12:24:02.320Z,99.99
2019-04-27T12:25:02.492Z,99.99
2019-04-27T12:26:02.675Z,99.66
2019-04-27T12:27:02.838Z,99.99
2019-04-27T12:28:03.013Z,99.85
2019-04-27T12:29:03.185Z,98.42
2019-04-27T12:30:03.360Z,99.99
2019-04-27T12:31:03.535Z,99.99
2019-04-27T12:32:05.545Z,99.99
2019-04-27T12:33:03.884Z,99.99
2019-04-27T12:34:04.053Z,99.90
2019-04-27T12:35:04.237Z,97.33
2019-04-27T12:36:04.399Z,97.99
2019-04-27T12:37:07.118Z,99.99
2019-04-27T12:38:05.847Z,99.90
2019-04-27T12:39:05.521Z,99.62
2019-04-27T12:40:05.925Z,99.33
2019-04-27T12:41:06.784Z,99.99
2019-04-27T12:42:06.076Z,95.79
2019-04-27T12:43:05.615Z,95.12
2019-04-27T12:44:07.156Z,93.98
2019-04-27T12:45:05.959Z,93.50
2019-04-27T12:46:06.134Z,93.40
2019-04-27T12:47:06.358Z,93.16
2019-04-27T12:48:06.478Z,94.12
2019-04-27T12:49:06.652Z,97.37
2019-04-27T12:50:06.822Z,92.40
2019-04-27T12:51:06.998Z,89.87
2019-04-27T12:52:07.168Z,94.17
2019-04-27T12:53:07.343Z,92.35
2019-04-27T12:54:07.575Z,92.83
2019-04-27T12:55:07.774Z,94.36
2019-04-27T12:56:07.921Z,95.70
2019-04-27T12:57:08.094Z,92.21
2019-04-27T12:58:08.265Z,91.35
2019-04-27T12:59:08.437Z,94.31
2019-04-27T13:00:08.615Z,92.45
2019-04-27T13:01:08.787Z,91.74
2019-04-27T13:02:08.961Z,94.12
2019-04-27T13:03:09.134Z,94.41
2019-04-27T13:04:09.304Z,95.46
2019-04-27T13:05:09.478Z,95.22
2019-04-27T13:06:09.653Z,93.98
2019-04-27T13:07:09.823Z,96.66
2019-04-27T13:08:09.995Z,96.94
2019-04-27T13:09:10.169Z,98.80
2019-04-27T13:10:10.338Z,98.90
2019-04-27T13:11:10.511Z,95.94
2019-04-27T13:12:10.777Z,95.51
2019-04-27T13:13:10.848Z,95.98
2019-04-27T13:14:11.024Z,91.78
2019-04-27T13:15:11.194Z,91.73
2019-04-27T13:16:11.367Z,92.92
2019-04-27T13:17:11.541Z,87.41
2019-04-27T13:18:11.713Z,84.97
2019-04-27T13:19:11.886Z,81.90
2019-04-27T13:20:12.060Z,81.29
2019-04-27T13:21:12.230Z,80.52
2019-04-27T13:22:12.406Z,81.86
2019-04-27T13:23:12.577Z,84.74
2019-04-27T13:24:12.746Z,85.65
2019-04-27T13:25:12.918Z,83.93
2019-04-27T13:26:13.089Z,83.83
2019-04-27T13:27:13.265Z,86.41
2019-04-27T13:28:13.443Z,85.55
2019-04-27T13:29:13.607Z,88.13
2019-04-27T13:30:13.778Z,88.76
2019-04-27T13:31:15.545Z,88.76
2019-04-27T13:32:14.119Z,90.87
2019-04-27T13:33:17.185Z,88.48
2019-04-27T13:34:15.908Z,89.58
2019-04-27T13:35:15.821Z,90.92
2019-04-27T13:36:15.025Z,92.25
2019-04-27T13:37:15.697Z,92.59
2019-04-27T13:38:17.791Z,92.69
2019-04-27T13:39:15.776Z,94.79
2019-04-27T13:40:17.075Z,98.61
2019-04-27T13:41:27.478Z,99.99
2019-04-27T13:42:15.856Z,99.99
2019-04-27T13:43:16.708Z,96.42
2019-04-27T13:44:16.214Z,97.08
2019-04-27T13:45:16.622Z,99.99
2019-04-27T13:46:16.558Z,99.85
2019-04-27T13:47:17.159Z,99.95
2019-04-27T13:48:16.900Z,99.38
2019-04-27T13:49:17.835Z,98.23
2019-04-27T13:50:17.253Z,99.38
2019-04-27T13:51:17.427Z,99.09
2019-04-27T13:52:17.674Z,96.70
2019-04-27T13:53:17.812Z,97.47
2019-04-27T13:54:25.415Z,99.09
2019-04-27T13:55:18.145Z,99.99
2019-04-27T13:56:18.319Z,99.99
2019-04-27T13:57:18.512Z,98.80
2019-04-27T13:58:18.880Z,98.33
2019-04-27T13:59:18.865Z,97.28
2019-04-27T14:00:19.039Z,97.66
2019-04-27T14:01:19.215Z,97.08
2019-04-27T14:02:23.379Z,97.75
2019-04-27T14:03:21.017Z,99.99
2019-04-27T14:04:19.731Z,99.99
2019-04-27T14:05:19.902Z,99.62
2019-04-27T14:06:20.073Z,99.85
2019-04-27T14:07:20.255Z,97.80
2019-04-27T14:08:20.423Z,97.42
2019-04-27T14:09:20.597Z,98.75
2019-04-27T14:10:20.770Z,99.14
2019-04-27T14:11:20.943Z,99.52
2019-04-27T14:12:21.647Z,99.04
2019-04-27T14:13:21.284Z,96.84
2019-04-27T14:14:21.457Z,99.90
2019-04-27T14:15:21.629Z,99.99
2019-04-27T14:16:21.801Z,99.99
2019-04-27T14:17:22.024Z,99.99
2019-04-27T14:18:22.146Z,97.71
2019-04-27T14:19:22.318Z,97.61
2019-04-27T14:20:22.488Z,97.52
2019-04-27T14:21:23.009Z,98.94
2019-04-27T14:22:22.847Z,95.98
2019-04-27T14:23:23.006Z,94.65
2019-04-27T14:24:30.031Z,95.32
2019-04-27T14:25:23.350Z,95.70
2019-04-27T14:26:23.523Z,97.23
2019-04-27T14:27:23.741Z,96.08
2019-04-27T14:28:23.870Z,99.04
2019-04-27T14:29:24.047Z,99.99
2019-04-27T14:30:24.216Z,97.18
2019-04-27T14:31:24.394Z,96.70
2019-04-27T14:32:24.568Z,95.51
2019-04-27T14:33:24.741Z,98.33
2019-04-27T14:34:24.911Z,97.47
2019-04-27T14:35:25.085Z,95.46
2019-04-27T14:36:25.258Z,93.26
2019-04-27T14:37:25.428Z,91.74
2019-04-27T14:38:25.601Z,93.36
2019-04-27T14:39:25.775Z,93.16
2019-04-27T14:40:25.954Z,94.98
2019-04-27T14:41:26.123Z,95.56
2019-04-27T14:42:26.294Z,96.70
2019-04-27T14:43:26.467Z,98.33
2019-04-27T14:44:26.640Z,94.70
2019-04-27T14:45:28.540Z,92.97
2019-04-27T14:46:28.311Z,95.65
2019-04-27T14:47:27.161Z,96.27
2019-04-27T14:48:29.292Z,94.70
2019-04-27T14:49:29.038Z,93.98
2019-04-27T14:50:27.681Z,95.98
2019-04-27T14:51:27.854Z,95.12
2019-04-27T14:52:28.021Z,94.46
2019-04-27T14:53:28.371Z,96.08
2019-04-27T14:54:30.191Z,96.17
2019-04-27T14:55:30.085Z,99.99
2019-04-27T14:56:28.720Z,99.99
2019-04-27T14:57:29.211Z,99.99
2019-04-27T14:58:29.063Z,99.99
2019-04-27T14:59:30.210Z,99.99
2019-04-27T15:00:30.636Z,99.99
2019-04-27T15:01:29.585Z,99.99
2019-04-27T15:02:29.757Z,99.99
2019-04-27T15:03:29.930Z,99.99
2019-04-27T15:04:31.392Z,99.99
2019-04-27T15:05:30.279Z,99.99
2019-04-27T15:06:30.457Z,99.99
2019-04-27T15:07:30.617Z,99.99
2019-04-27T15:08:30.788Z,99.99
2019-04-27T15:09:30.959Z,99.99
2019-04-27T15:10:32.982Z,99.99
2019-04-27T15:11:31.644Z,99.99
2019-04-27T15:12:32.395Z,99.99
2019-04-27T15:13:31.655Z,99.99
2019-04-27T15:14:31.822Z,99.99
2019-04-27T15:15:32.491Z,99.99
2019-04-27T15:16:32.165Z,99.99
2019-04-27T15:17:32.342Z,99.99
2019-04-27T15:18:34.649Z,99.99
2019-04-27T15:19:32.682Z,99.99
2019-04-27T15:20:32.887Z,99.99
2019-04-27T15:21:38.243Z,99.99
2019-04-27T15:22:33.197Z,99.99
2019-04-27T15:23:33.371Z,99.99
2019-04-27T15:24:33.544Z,99.99
2019-04-27T15:25:42.364Z,99.99
2019-04-27T15:26:33.881Z,99.99
2019-04-27T15:27:37.434Z,99.99
2019-04-27T15:28:34.222Z,99.99
2019-04-27T15:29:34.393Z,99.99
2019-04-27T15:30:35.163Z,99.99
2019-04-27T15:31:34.739Z,99.99
2019-04-27T15:32:39.395Z,99.99
2019-04-27T15:33:35.079Z,99.99
2019-04-27T15:34:35.675Z,99.99
2019-04-27T15:35:39.745Z,99.99
2019-04-27T15:36:35.602Z,99.99
2019-04-27T15:37:35.774Z,99.99
2019-04-27T15:38:35.948Z,99.99
2019-04-27T15:39:36.117Z,99.99
2019-04-27T15:40:36.290Z,99.99
2019-04-27T15:41:36.466Z,99.99
2019-04-27T15:42:41.616Z,99.99
2019-04-27T15:43:38.649Z,99.99
2019-04-27T15:44:41.117Z,99.99
2019-04-27T15:45:38.637Z,99.99
2019-04-27T15:46:38.997Z,99.99
2019-04-27T15:47:38.340Z,99.99
2019-04-27T15:48:38.495Z,99.99
2019-04-27T15:49:38.783Z,99.99
2019-04-27T15:50:38.718Z,99.99
2019-04-27T15:51:38.368Z,99.99
2019-04-27T15:52:38.451Z,99.99
2019-04-27T15:53:41.130Z,99.99
2019-04-27T15:54:38.697Z,99.99
2019-04-27T15:55:39.500Z,99.99
2019-04-27T15:56:39.039Z,99.99
2019-04-27T15:57:42.572Z,99.99
2019-04-27T15:58:39.380Z,99.99
2019-04-27T15:59:40.970Z,99.99
2019-04-27T16:00:39.731Z,99.99
2019-04-27T16:01:39.906Z,99.99
2019-04-27T16:02:40.077Z,99.99
2019-04-27T16:03:40.244Z,99.99
2019-04-27T16:04:44.463Z,99.99
2019-04-27T16:05:40.589Z,99.99
2019-04-27T16:06:42.919Z,99.99
2019-04-27T16:07:40.923Z,99.99
2019-04-27T16:08:44.973Z,99.99
2019-04-27T16:09:41.271Z,99.99
2019-04-27T16:10:41.440Z,99.99
2019-04-27T16:11:41.612Z,99.99
2019-04-27T16:12:50.352Z,99.99
2019-04-27T16:13:41.952Z,99.99
2019-04-27T16:14:44.141Z,99.99
2019-04-27T16:15:42.291Z,99.99
2019-04-27T16:16:42.467Z,99.99
2019-04-27T16:17:50.945Z,99.99
2019-04-27T16:18:42.813Z,99.99
2019-04-27T16:19:48.911Z,99.99
2019-04-27T16:20:43.157Z,99.99
2019-04-27T16:21:47.837Z,99.99
2019-04-27T16:22:43.498Z,99.99
2019-04-27T16:23:43.671Z,99.99
2019-04-27T16:24:43.840Z,99.99
2019-04-27T16:25:48.565Z,99.99
2019-04-27T16:26:46.348Z,99.99
2019-04-27T16:27:44.352Z,99.99
2019-04-27T16:28:49.607Z,99.99
2019-04-27T16:29:44.691Z,99.99
2019-04-27T16:30:45.792Z,99.99
2019-04-27T16:31:45.082Z,99.99
2019-04-27T16:32:46.407Z,99.99
2019-04-27T16:33:45.414Z,99.99
2019-04-27T16:34:45.584Z,99.99
2019-04-27T16:35:45.756Z,99.99
2019-04-27T16:36:45.928Z,99.99
2019-04-27T16:37:47.897Z,99.99
2019-04-27T16:38:47.985Z,99.99
2019-04-27T16:39:47.858Z,99.99
2019-04-27T16:40:46.613Z,99.99
2019-04-27T16:41:49.974Z,99.99
2019-04-27T16:42:50.724Z,99.99
2019-04-27T16:43:48.882Z,99.99
2019-04-27T16:44:51.436Z,99.99
2019-04-27T16:45:48.502Z,99.99
2019-04-27T16:46:48.882Z,99.99
2019-04-27T16:47:48.126Z,99.99
2019-04-27T16:48:47.985Z,99.99
2019-04-27T16:49:48.512Z,99.99
2019-04-27T16:50:48.340Z,99.99
2019-04-27T16:51:49.243Z,99.99
2019-04-27T16:52:56.602Z,99.99
2019-04-27T16:53:48.850Z,99.99
2019-04-27T16:54:49.874Z,99.99
2019-04-27T16:55:59.499Z,99.99
2019-04-27T16:56:52.719Z,99.99